Time;durP1;ratioP1;P1;durP2;ratioP2;P2;SDS_P1;SDS_P2;PMS_P1;PMS_P2;Temp;Humidity;BMP_temperature;BMP_pressure;BME280_temperature;BME280_humidity;BME280_pressure;Samples;Min_cycle;Max_cycle;Signal;HPM_P1;HPM_P2
2022/03/03 00:01:28;;;;;;;;;67.50;53.75;;;;;;;;5033635;28;45361;-71
2022/03/03 00:03:54;;;;;;;;;65.67;51.00;;;;;;;;5034226;28;45556;-71
2022/03/03 00:06:19;;;;;;;;;71.00;52.67;;;;;;;;5034025;28;46969;-70
2022/03/03 00:08:44;;;;;;;;;70.33;55.00;;;;;;;;5034783;28;45396;-71
2022/03/03 00:11:09;;;;;;;;;74.00;56.67;;;;;;;;5034329;28;45435;-72
2022/03/03 00:13:34;;;;;;;;;68.33;54.00;;;;;;;;5033828;28;45510;-71
2022/03/03 00:16:01;;;;;;;;;70.00;55.67;;;;;;;;5033582;28;45480;-71
2022/03/03 00:18:26;;;;;;;;;67.67;53.67;;;;;;;;5033885;28;45458;-70
2022/03/03 00:20:52;;;;;;;;;65.33;52.00;;;;;;;;5034521;28;45667;-72
2022/03/03 00:23:17;;;;;;;;;70.33;54.67;;;;;;;;5034032;28;45415;-72
2022/03/03 00:25:42;;;;;;;;;71.67;54.67;;;;;;;;5033680;28;46092;-72
2022/03/03 00:28:07;;;;;;;;;73.00;56.00;;;;;;;;5033001;28;45590;-70
2022/03/03 00:30:32;;;;;;;;;69.00;54.67;;;;;;;;5034304;28;45443;-70
2022/03/03 00:32:58;;;;;;;;;65.67;52.33;;;;;;;;5034257;28;45507;-70
2022/03/03 00:35:23;;;;;;;;;68.33;52.33;;;;;;;;5015868;28;47102;-70
2022/03/03 00:37:48;;;;;;;;;69.00;54.00;;;;;;;;5033779;28;45438;-70
2022/03/03 00:40:13;;;;;;;;;74.33;59.33;;;;;;;;5033995;28;45244;-69
2022/03/03 00:42:39;;;;;;;;;72.67;56.67;;;;;;;;5033639;28;47765;-70
2022/03/03 00:45:05;;;;;;;;;74.67;59.00;;;;;;;;5034020;28;46694;-71
2022/03/03 00:47:30;;;;;;;;;71.67;56.00;;;;;;;;5033904;28;45285;-70
2022/03/03 00:49:55;;;;;;;;;69.33;54.67;;;;;;;;5033758;28;45458;-71
2022/03/03 00:52:20;;;;;;;;;72.67;58.67;;;;;;;;5033500;28;45323;-71
2022/03/03 00:54:45;;;;;;;;;66.67;51.33;;;;;;;;5033699;28;45395;-71
2022/03/03 00:57:11;;;;;;;;;72.67;59.00;;;;;;;;5033290;28;45597;-73
2022/03/03 00:59:36;;;;;;;;;71.00;56.67;;;;;;;;5034073;28;45418;-70
2022/03/03 01:02:01;;;;;;;;;72.67;59.33;;;;;;;;5033435;28;45256;-70
2022/03/03 01:04:26;;;;;;;;;75.00;56.00;;;;;;;;5033125;28;46265;-70
2022/03/03 01:06:51;;;;;;;;;73.33;55.67;;;;;;;;5032940;28;45244;-71
2022/03/03 01:09:16;;;;;;;;;70.33;54.67;;;;;;;;5033429;28;45465;-70
2022/03/03 01:11:42;;;;;;;;;67.00;51.00;;;;;;;;5034732;28;45130;-71
2022/03/03 01:14:07;;;;;;;;;72.67;56.33;;;;;;;;5036855;28;45427;-69
2022/03/03 01:16:32;;;;;;;;;70.67;55.67;;;;;;;;5036904;28;45419;-71
2022/03/03 01:18:57;;;;;;;;;70.67;55.00;;;;;;;;5036993;28;45737;-72
2022/03/03 01:21:23;;;;;;;;;68.33;54.33;;;;;;;;5036818;28;45420;-70
2022/03/03 01:23:48;;;;;;;;;71.00;53.00;;;;;;;;5032829;28;45944;-70
2022/03/03 01:26:13;;;;;;;;;72.00;56.00;;;;;;;;5035546;28;45423;-70
2022/03/03 01:28:38;;;;;;;;;74.67;57.33;;;;;;;;5036554;28;45449;-70
2022/03/03 01:31:04;;;;;;;;;73.33;56.67;;;;;;;;5036722;28;45772;-71
2022/03/03 01:33:29;;;;;;;;;77.00;57.00;;;;;;;;5036277;28;46169;-71
2022/03/03 01:35:54;;;;;;;;;72.33;56.00;;;;;;;;5036623;28;45509;-70
2022/03/03 01:38:19;;;;;;;;;74.00;56.33;;;;;;;;5037146;28;45631;-70
2022/03/03 01:40:45;;;;;;;;;74.33;56.67;;;;;;;;5036239;28;45468;-71
2022/03/03 01:43:10;;;;;;;;;73.33;55.67;;;;;;;;5036354;28;45469;-72
2022/03/03 01:45:35;;;;;;;;;71.33;55.00;;;;;;;;5036694;28;45397;-71
2022/03/03 01:48:00;;;;;;;;;71.33;56.00;;;;;;;;5036423;28;45488;-71
2022/03/03 01:50:26;;;;;;;;;68.67;53.67;;;;;;;;5036363;28;45341;-71
2022/03/03 01:52:51;;;;;;;;;71.00;56.33;;;;;;;;5036185;28;46105;-71
2022/03/03 01:55:17;;;;;;;;;75.67;57.33;;;;;;;;5035897;28;45317;-71
2022/03/03 01:57:42;;;;;;;;;71.33;57.00;;;;;;;;5036581;28;45419;-71
2022/03/03 02:00:08;;;;;;;;;73.00;55.67;;;;;;;;5036167;28;46002;-71
2022/03/03 02:02:33;;;;;;;;;67.67;54.00;;;;;;;;5036619;28;45343;-71
2022/03/03 02:04:58;;;;;;;;;81.00;67.00;;;;;;;;5036351;28;45518;-70
2022/03/03 02:07:24;;;;;;;;;74.33;58.33;;;;;;;;5036200;28;45427;-71
2022/03/03 02:09:50;;;;;;;;;75.00;55.33;;;;;;;;5035784;28;45382;-71
2022/03/03 02:12:15;;;;;;;;;74.00;57.33;;;;;;;;5036239;28;45407;-71
2022/03/03 02:14:45;;;;;;;;;78.00;64.33;;;;;;;;5036814;28;45387;-71
2022/03/03 02:17:10;;;;;;;;;70.67;54.67;;;;;;;;5036264;28;47795;-71
2022/03/03 02:19:35;;;;;;;;;75.67;62.33;;;;;;;;5035948;28;45314;-71
2022/03/03 02:22:00;;;;;;;;;74.33;57.33;;;;;;;;5035645;28;45543;-69
2022/03/03 02:24:25;;;;;;;;;70.33;55.33;;;;;;;;5035136;28;45585;-71
2022/03/03 02:26:51;;;;;;;;;71.00;55.67;;;;;;;;5036635;28;45459;-70
2022/03/03 02:29:16;;;;;;;;;72.33;55.67;;;;;;;;5017772;28;45698;-72
2022/03/03 02:31:44;;;;;;;;;74.67;58.67;;;;;;;;5035480;28;46157;-71
2022/03/03 02:34:09;;;;;;;;;71.33;58.00;;;;;;;;5035458;28;45400;-71
2022/03/03 02:36:34;;;;;;;;;72.33;58.67;;;;;;;;5034756;28;47689;-71
2022/03/03 02:39:02;;;;;;;;;75.00;60.67;;;;;;;;5017557;28;45619;-72
2022/03/03 02:41:27;;;;;;;;;70.33;53.33;;;;;;;;5035479;28;46176;-71
2022/03/03 02:43:53;;;;;;;;;72.00;58.00;;;;;;;;5035138;28;45477;-72
2022/03/03 02:46:18;;;;;;;;;73.67;57.00;;;;;;;;5035513;28;45505;-72
2022/03/03 02:48:44;;;;;;;;;74.33;59.00;;;;;;;;5035353;28;45524;-71
2022/03/03 02:51:09;;;;;;;;;67.67;52.67;;;;;;;;5034578;28;45947;-69
2022/03/03 02:53:35;;;;;;;;;69.00;53.67;;;;;;;;5035830;28;45453;-71
2022/03/03 02:56:01;;;;;;;;;71.33;56.00;;;;;;;;5035055;28;45359;-71
2022/03/03 02:58:26;;;;;;;;;75.67;60.33;;;;;;;;5035025;28;45479;-71
2022/03/03 03:00:51;;;;;;;;;74.00;59.00;;;;;;;;5034976;28;45435;-72
2022/03/03 03:03:17;;;;;;;;;70.67;56.00;;;;;;;;5034823;28;45441;-70
2022/03/03 03:05:43;;;;;;;;;74.67;60.33;;;;;;;;5035351;28;45431;-71
2022/03/03 03:08:09;;;;;;;;;73.00;57.67;;;;;;;;5035128;28;45431;-71
2022/03/03 03:10:34;;;;;;;;;71.00;55.67;;;;;;;;5034776;28;46153;-71
2022/03/03 03:13:00;;;;;;;;;72.33;56.00;;;;;;;;5035011;28;45363;-71
2022/03/03 03:15:25;;;;;;;;;66.25;51.50;;;;;;;;5035153;28;45552;-71
2022/03/03 03:17:51;;;;;;;;;79.50;60.75;;;;;;;;5035597;28;45588;-71
2022/03/03 03:20:16;;;;;;;;;79.00;61.50;;;;;;;;5033973;28;45981;-71
2022/03/03 03:22:41;;;;;;;;;78.75;59.50;;;;;;;;5034407;28;45667;-71
2022/03/03 03:25:08;;;;;;;;;72.00;56.33;;;;;;;;5017318;28;49824;-71
2022/03/03 03:27:33;;;;;;;;;75.75;58.00;;;;;;;;5034940;28;45574;-71
2022/03/03 03:29:59;;;;;;;;;73.75;56.75;;;;;;;;5034940;28;47140;-71
2022/03/03 03:32:24;;;;;;;;;81.33;61.33;;;;;;;;5035087;28;45496;-72
2022/03/03 03:34:49;;;;;;;;;76.50;59.00;;;;;;;;5033643;28;45449;-71
2022/03/03 03:37:16;;;;;;;;;83.67;62.67;;;;;;;;5034731;28;45437;-70
2022/03/03 03:39:41;;;;;;;;;74.00;59.67;;;;;;;;5034716;28;46205;-70
2022/03/03 03:42:06;;;;;;;;;71.00;53.67;;;;;;;;5034217;28;45633;-70
2022/03/03 03:44:31;;;;;;;;;75.00;60.67;;;;;;;;5035192;28;45424;-72
2022/03/03 03:46:56;;;;;;;;;75.00;56.67;;;;;;;;5034458;28;45391;-71
2022/03/03 03:49:23;;;;;;;;;70.67;57.00;;;;;;;;5033676;28;45337;-70
2022/03/03 03:51:48;;;;;;;;;76.00;59.33;;;;;;;;5034238;28;45511;-71
2022/03/03 03:54:14;;;;;;;;;80.00;61.00;;;;;;;;5034414;28;45492;-71
2022/03/03 03:56:39;;;;;;;;;74.00;55.00;;;;;;;;5034832;28;45382;-72
2022/03/03 03:59:04;;;;;;;;;73.67;56.33;;;;;;;;5033757;28;45380;-71
2022/03/03 04:01:31;;;;;;;;;71.67;57.00;;;;;;;;5033758;28;45466;-71
2022/03/03 04:03:56;;;;;;;;;70.33;55.67;;;;;;;;5033865;28;45342;-71
2022/03/03 04:06:21;;;;;;;;;71.00;56.67;;;;;;;;5034559;28;45336;-71
2022/03/03 04:08:47;;;;;;;;;69.67;56.67;;;;;;;;5034636;28;47132;-71
2022/03/03 04:11:12;;;;;;;;;69.67;54.00;;;;;;;;5033742;28;45390;-72
2022/03/03 04:13:37;;;;;;;;;69.00;55.67;;;;;;;;5034066;28;45450;-71
2022/03/03 04:16:02;;;;;;;;;71.00;56.00;;;;;;;;5033812;28;45686;-71
2022/03/03 04:18:28;;;;;;;;;72.33;56.67;;;;;;;;5033310;28;46316;-71
2022/03/03 04:20:53;;;;;;;;;71.00;56.67;;;;;;;;5034300;28;45514;-71
2022/03/03 04:23:19;;;;;;;;;70.67;56.00;;;;;;;;5034324;28;45469;-71
2022/03/03 04:25:44;;;;;;;;;72.67;56.33;;;;;;;;5033957;28;45487;-72
2022/03/03 04:28:09;;;;;;;;;77.33;56.33;;;;;;;;5033303;28;46054;-71
2022/03/03 04:30:35;;;;;;;;;72.00;54.67;;;;;;;;5033568;28;45383;-70
2022/03/03 04:33:00;;;;;;;;;74.25;58.00;;;;;;;;5034045;28;45428;-71
2022/03/03 04:35:25;;;;;;;;;68.50;53.25;;;;;;;;5033720;28;45408;-71
2022/03/03 04:37:50;;;;;;;;;73.00;53.75;;;;;;;;5033438;28;46125;-71
2022/03/03 04:40:16;;;;;;;;;72.00;57.00;;;;;;;;5033414;28;45340;-70
2022/03/03 04:42:41;;;;;;;;;67.00;53.00;;;;;;;;5033473;28;45261;-70
2022/03/03 04:45:06;;;;;;;;;75.25;57.50;;;;;;;;5033968;28;45286;-71
2022/03/03 04:47:32;;;;;;;;;72.75;53.75;;;;;;;;5033218;28;47073;-72
2022/03/03 04:49:57;;;;;;;;;66.00;50.25;;;;;;;;5036679;28;45539;-72
2022/03/03 04:52:22;;;;;;;;;69.25;54.25;;;;;;;;5036996;28;45509;-69
2022/03/03 04:54:49;;;;;;;;;64.50;51.00;;;;;;;;5037010;28;45660;-70
2022/03/03 04:57:14;;;;;;;;;62.00;48.75;;;;;;;;5036781;28;46879;-71
2022/03/03 04:59:40;;;;;;;;;59.25;46.75;;;;;;;;5037438;28;45332;-70
2022/03/03 05:02:05;;;;;;;;;54.75;45.25;;;;;;;;5036747;28;45452;-71
2022/03/03 05:04:30;;;;;;;;;63.25;49.00;;;;;;;;5036585;28;45341;-70
2022/03/03 05:06:55;;;;;;;;;60.50;48.50;;;;;;;;5036200;28;46535;-71
2022/03/03 05:09:20;;;;;;;;;59.75;47.25;;;;;;;;5035755;28;45464;-70
2022/03/03 05:11:46;;;;;;;;;65.00;48.25;;;;;;;;5037197;28;45444;-70
2022/03/03 05:14:11;;;;;;;;;53.50;42.75;;;;;;;;5036537;28;45295;-70
2022/03/03 05:16:36;;;;;;;;;58.25;45.75;;;;;;;;5035469;28;45996;-70
2022/03/03 05:19:02;;;;;;;;;52.00;42.00;;;;;;;;5035955;28;45233;-70
2022/03/03 05:21:27;;;;;;;;;55.00;43.75;;;;;;;;5035890;28;45320;-71
2022/03/03 05:23:53;;;;;;;;;52.25;42.50;;;;;;;;5036689;28;45262;-72
2022/03/03 05:26:18;;;;;;;;;54.25;42.75;;;;;;;;5024294;28;45468;-71
2022/03/03 05:28:44;;;;;;;;;50.00;38.50;;;;;;;;5030939;28;45389;-70
2022/03/03 05:31:09;;;;;;;;;50.75;41.75;;;;;;;;5035155;28;45404;-70
2022/03/03 05:33:35;;;;;;;;;50.00;41.50;;;;;;;;5036176;28;45449;-70
2022/03/03 05:36:01;;;;;;;;;49.50;41.75;;;;;;;;5035857;28;46073;-73
2022/03/03 05:38:27;;;;;;;;;49.50;40.25;;;;;;;;5036155;28;45300;-70
2022/03/03 05:40:53;;;;;;;;;50.00;40.00;;;;;;;;5034849;28;45318;-71
2022/03/03 05:43:18;;;;;;;;;58.25;46.75;;;;;;;;5035841;28;45575;-70
2022/03/03 05:45:46;;;;;;;;;48.75;38.75;;;;;;;;5035446;28;46305;-71
2022/03/03 05:48:12;;;;;;;;;51.50;40.00;;;;;;;;5035700;28;45456;-71
2022/03/03 05:50:37;;;;;;;;;56.75;43.00;;;;;;;;5035788;28;45299;-72
2022/03/03 05:53:02;;;;;;;;;50.00;42.75;;;;;;;;5035212;28;45533;-71
2022/03/03 05:55:29;;;;;;;;;66.00;53.00;;;;;;;;5034518;28;47059;-70
2022/03/03 05:57:54;;;;;;;;;72.00;55.33;;;;;;;;5034000;28;45346;-69
2022/03/03 06:00:20;;;;;;;;;61.50;48.00;;;;;;;;5035197;28;45397;-69
2022/03/03 06:02:50;;;;;;;;;66.00;53.67;;;;;;;;5035329;28;45508;-69
2022/03/03 06:05:19;;;;;;;;;74.25;56.50;;;;;;;;5034239;28;45961;-70
2022/03/03 06:07:45;;;;;;;;;82.75;63.75;;;;;;;;5034370;28;45375;-68
2022/03/03 06:10:11;;;;;;;;;76.00;59.75;;;;;;;;5033830;28;45411;-70
2022/03/03 06:12:47;;;;;;;;;71.00;55.33;;;;;;;;5034790;28;45392;-73
2022/03/03 06:15:13;;;;;;;;;69.00;55.50;;;;;;;;5034479;28;46279;-69
2022/03/03 06:17:39;;;;;;;;;62.75;48.50;;;;;;;;5036182;28;45430;-67
2022/03/03 06:20:05;;;;;;;;;66.50;54.50;;;;;;;;5034722;28;45554;-71
2022/03/03 06:22:31;;;;;;;;;66.25;52.25;;;;;;;;5034570;28;45486;-69
2022/03/03 06:24:56;;;;;;;;;67.00;51.75;;;;;;;;5034621;28;47376;-72
2022/03/03 06:27:22;;;;;;;;;54.75;44.75;;;;;;;;5034861;28;49292;-72
2022/03/03 06:29:47;;;;;;;;;56.25;44.75;;;;;;;;5016409;28;45396;-72
2022/03/03 06:32:13;;;;;;;;;47.75;41.00;;;;;;;;5033444;28;45526;-72
2022/03/03 06:34:39;;;;;;;;;46.50;37.00;;;;;;;;5033008;28;47021;-71
2022/03/03 06:37:05;;;;;;;;;52.00;41.75;;;;;;;;5033547;28;45329;-68
2022/03/03 06:39:30;;;;;;;;;51.00;42.00;;;;;;;;5033239;28;45423;-72
2022/03/03 06:41:55;;;;;;;;;50.75;40.75;;;;;;;;5034136;28;45471;-72
2022/03/03 06:44:20;;;;;;;;;52.00;42.25;;;;;;;;5034091;28;45897;-72
2022/03/03 06:46:47;;;;;;;;;53.25;42.00;;;;;;;;5033438;28;45498;-71
2022/03/03 06:49:12;;;;;;;;;48.75;39.25;;;;;;;;5034496;28;45386;-70
2022/03/03 06:51:40;;;;;;;;;53.25;41.75;;;;;;;;5034065;28;45414;-71
2022/03/03 06:54:06;;;;;;;;;46.50;39.25;;;;;;;;5034014;28;46135;-71
2022/03/03 06:56:34;;;;;;;;;49.25;40.00;;;;;;;;5016360;28;45335;-70
2022/03/03 06:58:59;;;;;;;;;54.75;43.25;;;;;;;;5033257;28;45520;-73
2022/03/03 07:01:27;;;;;;;;;50.25;40.25;;;;;;;;5033598;28;45360;-70
2022/03/03 07:03:52;;;;;;;;;48.25;38.75;;;;;;;;5033376;28;45539;-73
2022/03/03 07:06:18;;;;;;;;;52.25;41.00;;;;;;;;5033486;28;45485;-71
2022/03/03 07:08:43;;;;;;;;;46.50;37.50;;;;;;;;5033484;28;45377;-71
2022/03/03 07:11:10;;;;;;;;;52.50;42.50;;;;;;;;5032976;28;45446;-69
2022/03/03 07:13:37;;;;;;;;;52.25;42.50;;;;;;;;5032401;28;46353;-71
2022/03/03 07:16:16;;;;;;;;;48.75;39.75;;;;;;;;5032773;28;45550;-69
2022/03/03 07:18:42;;;;;;;;;54.00;42.75;;;;;;;;5033040;28;45480;-71
2022/03/03 07:21:12;;;;;;;;;43.25;36.25;;;;;;;;5033051;28;45398;-69
2022/03/03 07:23:39;;;;;;;;;51.75;41.75;;;;;;;;5033429;28;47296;-68
2022/03/03 07:26:05;;;;;;;;;52.25;40.50;;;;;;;;5033112;28;45567;-68
2022/03/03 07:28:31;;;;;;;;;52.50;41.75;;;;;;;;5032648;28;45538;-69
2022/03/03 07:30:59;;;;;;;;;48.50;39.25;;;;;;;;5032644;28;45498;-70
2022/03/03 07:33:38;;;;;;;;;51.00;41.50;;;;;;;;5032840;28;45590;-70
2022/03/03 07:36:06;;;;;;;;;47.50;40.50;;;;;;;;5032810;28;45472;-68
2022/03/03 07:38:34;;;;;;;;;52.00;43.00;;;;;;;;5033271;28;45454;-70
2022/03/03 07:40:59;;;;;;;;;49.25;40.75;;;;;;;;5025639;28;45515;-69
2022/03/03 07:43:24;;;;;;;;;57.00;46.50;;;;;;;;5023893;28;45485;-69
2022/03/03 07:45:50;;;;;;;;;55.50;47.00;;;;;;;;5024170;28;45426;-70
2022/03/03 07:48:15;;;;;;;;;60.00;44.50;;;;;;;;5024191;28;45432;-70
2022/03/03 07:50:41;;;;;;;;;61.00;48.50;;;;;;;;5024497;28;45855;-72
2022/03/03 07:53:07;;;;;;;;;56.75;46.00;;;;;;;;5023721;28;46150;-71
2022/03/03 07:55:37;;;;;;;;;56.00;44.00;;;;;;;;5006385;28;45485;-71
2022/03/03 07:58:03;;;;;;;;;51.75;42.25;;;;;;;;5025179;28;45485;-69
2022/03/03 08:00:32;;;;;;;;;53.25;45.25;;;;;;;;5024504;28;45431;-72
2022/03/03 08:02:59;;;;;;;;;58.75;44.50;;;;;;;;5024513;28;46035;-74
2022/03/03 08:05:24;;;;;;;;;51.00;41.00;;;;;;;;5027638;28;45362;-73
2022/03/03 08:07:53;;;;;;;;;55.00;42.75;;;;;;;;5024856;28;45374;-74
2022/03/03 08:10:19;;;;;;;;;54.75;43.00;;;;;;;;5006239;28;46719;-70
2022/03/03 08:12:45;;;;;;;;;54.50;45.75;;;;;;;;5021622;28;46724;-72
2022/03/03 08:15:11;;;;;;;;;56.25;45.00;;;;;;;;5024217;28;45579;-72
2022/03/03 08:17:37;;;;;;;;;53.50;44.25;;;;;;;;5024292;28;45464;-70
2022/03/03 08:20:04;;;;;;;;;54.25;43.50;;;;;;;;5026829;28;45544;-74
2022/03/03 08:22:29;;;;;;;;;57.75;46.25;;;;;;;;5021648;28;47144;-73
2022/03/03 08:24:55;;;;;;;;;52.75;44.00;;;;;;;;5025896;28;45394;-74
2022/03/03 08:27:22;;;;;;;;;57.50;44.75;;;;;;;;5023462;28;45383;-75
2022/03/03 08:29:47;;;;;;;;;62.00;46.75;;;;;;;;5024820;28;45379;-75
2022/03/03 08:32:16;;;;;;;;;59.75;46.25;;;;;;;;5024480;28;46301;-78
2022/03/03 08:34:47;;;;;;;;;53.25;43.00;;;;;;;;5026221;28;45374;-78
2022/03/03 08:37:28;;;;;;;;;61.50;47.25;;;;;;;;5024398;28;45371;-76
2022/03/03 08:39:54;;;;;;;;;57.25;42.75;;;;;;;;5023275;28;45270;-76
2022/03/03 08:42:23;;;;;;;;;50.00;41.25;;;;;;;;5023743;28;47391;-75
2022/03/03 08:44:52;;;;;;;;;57.50;44.25;;;;;;;;5022172;28;45321;-70
2022/03/03 08:47:20;;;;;;;;;53.25;42.00;;;;;;;;5023227;28;45459;-69
2022/03/03 08:49:48;;;;;;;;;52.75;43.75;;;;;;;;5023976;28;45262;-70
2022/03/03 08:52:13;;;;;;;;;60.00;44.75;;;;;;;;5005683;28;46449;-70
2022/03/03 08:54:39;;;;;;;;;52.50;44.00;;;;;;;;5023094;28;45417;-69
2022/03/03 08:57:04;;;;;;;;;53.75;43.50;;;;;;;;5005814;28;45310;-74
2022/03/03 08:59:29;;;;;;;;;55.00;45.25;;;;;;;;5023306;28;45339;-75
2022/03/03 09:01:56;;;;;;;;;59.25;46.00;;;;;;;;5023722;28;46024;-69
2022/03/03 09:04:22;;;;;;;;;56.00;44.75;;;;;;;;5023547;28;45427;-69
2022/03/03 09:06:47;;;;;;;;;57.25;44.50;;;;;;;;5022260;28;45311;-73
2022/03/03 09:09:12;;;;;;;;;56.50;44.50;;;;;;;;5023430;28;45359;-74
2022/03/03 09:11:39;;;;;;;;;57.50;44.50;;;;;;;;5017467;28;46144;-73
2022/03/03 09:14:04;;;;;;;;;51.75;42.50;;;;;;;;5029560;28;45558;-74
2022/03/03 09:16:30;;;;;;;;;57.75;46.00;;;;;;;;5027541;28;45510;-75
2022/03/03 09:18:55;;;;;;;;;58.75;46.00;;;;;;;;5020349;28;45308;-74
2022/03/03 09:21:20;;;;;;;;;55.50;44.00;;;;;;;;5031938;28;45922;-75
2022/03/03 09:23:45;;;;;;;;;55.00;45.25;;;;;;;;5032444;28;45375;-74
2022/03/03 09:26:11;;;;;;;;;54.50;44.25;;;;;;;;5013627;28;45664;-75
2022/03/03 09:28:36;;;;;;;;;53.75;43.00;;;;;;;;5031952;28;45479;-75
2022/03/03 09:31:01;;;;;;;;;51.75;42.75;;;;;;;;5032549;28;45553;-75
2022/03/03 09:33:27;;;;;;;;;54.25;43.50;;;;;;;;5034759;28;45347;-75
2022/03/03 09:35:52;;;;;;;;;55.50;44.75;;;;;;;;5036276;28;45339;-74
2022/03/03 09:38:17;;;;;;;;;56.50;44.00;;;;;;;;5023626;28;45296;-74
2022/03/03 09:40:43;;;;;;;;;61.75;46.00;;;;;;;;5029947;28;45565;-75
2022/03/03 09:43:08;;;;;;;;;69.00;55.50;;;;;;;;5035522;28;45324;-76
2022/03/03 09:45:36;;;;;;;;;50.75;42.25;;;;;;;;5035258;28;45442;-74
2022/03/03 09:48:06;;;;;;;;;61.00;46.75;;;;;;;;5034972;28;45496;-75
2022/03/03 09:50:34;;;;;;;;;60.75;47.25;;;;;;;;5017138;28;48272;-74
2022/03/03 09:52:59;;;;;;;;;57.50;45.75;;;;;;;;5034361;28;45442;-76
2022/03/03 09:55:25;;;;;;;;;60.00;49.25;;;;;;;;5035470;28;45246;-74
2022/03/03 09:57:50;;;;;;;;;57.75;46.00;;;;;;;;5035162;28;45271;-75
2022/03/03 10:00:16;;;;;;;;;59.75;46.00;;;;;;;;5035233;28;46328;-73
2022/03/03 10:02:54;;;;;;;;;56.25;46.00;;;;;;;;5002903;28;45429;-74
2022/03/03 10:05:31;;;;;;;;;55.50;45.00;;;;;;;;5023509;28;45501;-73
2022/03/03 10:08:02;;;;;;;;;65.50;49.50;;;;;;;;5031282;28;45647;-76
2022/03/03 10:10:28;;;;;;;;;63.75;47.75;;;;;;;;5016479;28;46060;-75
2022/03/03 10:12:56;;;;;;;;;58.50;45.25;;;;;;;;5034261;28;45432;-75
2022/03/03 10:15:24;;;;;;;;;56.75;45.00;;;;;;;;5018832;28;45295;-75
2022/03/03 10:17:54;;;;;;;;;65.25;49.50;;;;;;;;5030836;28;45383;-75
2022/03/03 10:20:19;;;;;;;;;56.00;44.75;;;;;;;;5022622;28;46060;-74
2022/03/03 10:22:46;;;;;;;;;62.50;47.75;;;;;;;;5029554;28;45591;-74
2022/03/03 10:25:12;;;;;;;;;61.50;49.25;;;;;;;;5034360;28;45429;-74
2022/03/03 10:27:37;;;;;;;;;57.25;46.25;;;;;;;;5034760;28;45352;-73
2022/03/03 10:30:05;;;;;;;;;60.75;49.50;;;;;;;;5034436;28;45383;-75
2022/03/03 10:32:30;;;;;;;;;57.50;45.00;;;;;;;;5035030;28;45509;-76
2022/03/03 10:35:01;;;;;;;;;58.00;47.75;;;;;;;;5034262;28;45347;-74
2022/03/03 10:37:26;;;;;;;;;58.50;46.00;;;;;;;;5034369;28;45407;-74
2022/03/03 10:39:59;;;;;;;;;51.75;40.75;;;;;;;;5033956;28;46715;-74
2022/03/03 10:42:25;;;;;;;;;53.00;40.75;;;;;;;;5018625;28;45305;-74
2022/03/03 10:45:03;;;;;;;;;26.00;21.00;;;;;;;;5033996;28;45352;-74
2022/03/03 10:47:29;;;;;;;;;49.75;40.75;;;;;;;;5021257;28;45554;-75
2022/03/03 10:49:55;;;;;;;;;55.00;44.75;;;;;;;;5011986;28;46407;-74
2022/03/03 10:52:21;;;;;;;;;56.25;46.00;;;;;;;;5034060;28;45388;-75
2022/03/03 10:54:52;;;;;;;;;54.00;43.00;;;;;;;;5034321;28;45470;-74
2022/03/03 10:57:34;;;;;;;;;59.75;46.25;;;;;;;;5017851;28;45286;-75
2022/03/03 11:00:01;;;;;;;;;55.25;43.75;;;;;;;;5031279;28;46884;-74
2022/03/03 11:02:28;;;;;;;;;54.25;43.00;;;;;;;;5031542;28;45785;-75
2022/03/03 11:04:54;;;;;;;;;53.50;39.75;;;;;;;;5033361;28;45537;-75
2022/03/03 11:07:20;;;;;;;;;53.50;43.75;;;;;;;;5033370;28;45530;-74
2022/03/03 11:09:46;;;;;;;;;42.00;38.00;;;;;;;;5033333;28;46982;-75
2022/03/03 11:12:12;;;;;;;;;47.25;38.75;;;;;;;;5033122;28;45504;-75
2022/03/03 11:14:37;;;;;;;;;42.75;34.75;;;;;;;;5033968;28;45377;-75
2022/03/03 11:17:03;;;;;;;;;49.75;38.50;;;;;;;;5033271;28;45398;-75
2022/03/03 11:19:29;;;;;;;;;52.75;40.25;;;;;;;;5028780;28;45786;-75
2022/03/03 11:21:54;;;;;;;;;46.25;36.75;;;;;;;;5005260;28;45369;-76
2022/03/03 11:24:21;;;;;;;;;51.25;40.00;;;;;;;;5034268;28;45446;-75
2022/03/03 11:26:48;;;;;;;;;49.75;40.25;;;;;;;;5034607;28;45588;-76
2022/03/03 11:29:17;;;;;;;;;58.00;45.00;;;;;;;;5033534;28;47199;-76
2022/03/03 11:31:44;;;;;;;;;52.75;41.00;;;;;;;;5034136;28;45470;-75
2022/03/03 11:34:19;;;;;;;;;64.25;50.00;;;;;;;;5038148;28;45540;-74
2022/03/03 11:36:47;;;;;;;;;54.75;43.75;;;;;;;;5036875;28;46237;-76
2022/03/03 11:39:31;;;;;;;;;61.25;45.25;;;;;;;;5036950;28;45354;-75
2022/03/03 11:41:56;;;;;;;;;65.75;53.25;;;;;;;;5038256;28;45304;-74
2022/03/03 11:44:34;;;;;;;;;46.75;37.75;;;;;;;;5035381;28;45499;-76
2022/03/03 11:47:15;;;;;;;;;61.50;48.75;;;;;;;;5038585;28;45606;-75
2022/03/03 11:49:56;;;;;;;;;61.00;48.25;;;;;;;;5033360;28;45586;-75
2022/03/03 11:52:21;;;;;;;;;51.25;42.75;;;;;;;;5013926;28;45279;-76
2022/03/03 11:54:47;;;;;;;;;54.75;45.50;;;;;;;;5035889;28;45519;-74
2022/03/03 11:57:12;;;;;;;;;54.50;44.00;;;;;;;;5033703;28;45418;-75
2022/03/03 11:59:42;;;;;;;;;57.00;43.50;;;;;;;;5020878;28;45310;-74
2022/03/03 12:02:08;;;;;;;;;54.50;43.75;;;;;;;;5031784;28;45379;-75
2022/03/03 12:04:34;;;;;;;;;49.50;40.50;;;;;;;;5028789;28;45502;-75
2022/03/03 12:07:00;;;;;;;;;39.50;37.25;;;;;;;;5022457;28;45466;-76
2022/03/03 12:09:26;;;;;;;;;54.00;43.75;;;;;;;;5018029;28;47899;-76
2022/03/03 12:12:10;;;;;;;;;58.00;44.50;;;;;;;;5034180;28;45365;-75
2022/03/03 12:14:37;;;;;;;;;56.00;44.25;;;;;;;;5032227;28;45414;-76
2022/03/03 12:17:29;;;;;;;;;48.50;39.75;;;;;;;;5033106;28;45380;-76
2022/03/03 12:19:54;;;;;;;;;47.50;34.50;;;;;;;;4971411;28;46244;-75
2022/03/03 12:22:25;;;;;;;;;47.50;40.50;;;;;;;;4971362;28;45344;-74
2022/03/03 12:24:50;;;;;;;;;62.50;46.25;;;;;;;;4971229;28;45468;-75
2022/03/03 12:27:16;;;;;;;;;49.00;39.00;;;;;;;;4970980;28;45373;-76
2022/03/03 12:29:48;;;;;;;;;47.50;37.50;;;;;;;;4971015;28;45374;-76
2022/03/03 12:32:20;;;;;;;;;51.50;40.75;;;;;;;;4970300;28;45573;-74
2022/03/03 12:34:45;;;;;;;;;46.50;38.25;;;;;;;;4971025;28;45430;-74
2022/03/03 12:37:10;;;;;;;;;48.00;39.75;;;;;;;;4971009;28;45596;-74
2022/03/03 12:39:36;;;;;;;;;47.75;40.00;;;;;;;;4971347;28;45410;-74
2022/03/03 12:42:02;;;;;;;;;42.50;34.25;;;;;;;;4971447;28;45358;-75
2022/03/03 12:44:28;;;;;;;;;41.25;35.00;;;;;;;;4971633;28;45404;-75
2022/03/03 12:46:54;;;;;;;;;48.25;39.00;;;;;;;;4970952;28;45515;-75
2022/03/03 12:49:22;;;;;;;;;49.25;37.75;;;;;;;;4970328;28;45393;-75
2022/03/03 12:51:48;;;;;;;;;44.25;37.75;;;;;;;;4970743;28;45540;-76
2022/03/03 12:54:16;;;;;;;;;43.00;35.75;;;;;;;;4970882;28;45547;-74
2022/03/03 12:56:41;;;;;;;;;42.00;35.75;;;;;;;;4991206;28;45298;-76
2022/03/03 12:59:07;;;;;;;;;42.50;36.50;;;;;;;;5012178;28;46639;-75
2022/03/03 13:01:33;;;;;;;;;43.50;33.25;;;;;;;;5011900;28;45462;-74
2022/03/03 13:04:03;;;;;;;;;41.25;35.00;;;;;;;;5013507;28;45436;-76
2022/03/03 13:06:29;;;;;;;;;43.75;35.50;;;;;;;;5013641;28;45405;-75
2022/03/03 13:09:02;;;;;;;;;38.50;37.00;;;;;;;;5016763;28;46794;-76
2022/03/03 13:11:27;;;;;;;;;47.25;36.25;;;;;;;;5016264;28;45423;-73
2022/03/03 13:13:57;;;;;;;;;43.75;36.00;;;;;;;;5016197;28;45529;-75
2022/03/03 13:16:24;;;;;;;;;48.00;39.50;;;;;;;;5015738;28;45608;-75
2022/03/03 13:18:50;;;;;;;;;42.75;35.75;;;;;;;;5015640;28;46576;-75
2022/03/03 13:21:16;;;;;;;;;38.25;32.25;;;;;;;;5016019;28;45427;-75
2022/03/03 13:23:42;;;;;;;;;46.00;36.25;;;;;;;;5016184;28;45374;-75
2022/03/03 13:26:15;;;;;;;;;38.50;32.50;;;;;;;;5015018;28;45546;-74
2022/03/03 13:28:42;;;;;;;;;42.75;35.00;;;;;;;;5014819;28;46314;-76
2022/03/03 13:31:08;;;;;;;;;41.00;34.25;;;;;;;;5015753;28;45398;-75
2022/03/03 13:33:43;;;;;;;;;42.00;33.50;;;;;;;;5014623;28;45368;-75
2022/03/03 13:36:13;;;;;;;;;36.75;33.00;;;;;;;;5016365;28;45386;-75
2022/03/03 13:38:39;;;;;;;;;46.50;38.25;;;;;;;;5014549;28;47195;-74
2022/03/03 13:41:18;;;;;;;;;33.00;26.75;;;;;;;;5015854;28;45573;-75
2022/03/03 13:43:43;;;;;;;;;38.50;33.75;;;;;;;;5015136;28;45437;-76
2022/03/03 13:46:08;;;;;;;;;42.25;33.50;;;;;;;;5014911;28;45585;-75
2022/03/03 13:48:33;;;;;;;;;40.75;34.00;;;;;;;;5014380;28;47177;-75
2022/03/03 13:51:03;;;;;;;;;38.50;34.00;;;;;;;;5020152;28;45350;-76
2022/03/03 13:53:28;;;;;;;;;34.00;30.75;;;;;;;;5021589;28;46019;-75
2022/03/03 13:56:05;;;;;;;;;34.25;31.50;;;;;;;;5023398;28;45377;-75
2022/03/03 13:58:30;;;;;;;;;43.50;33.00;;;;;;;;5027747;28;45370;-75
2022/03/03 14:00:55;;;;;;;;;45.25;33.75;;;;;;;;5035162;28;45423;-74
2022/03/03 14:03:31;;;;;;;;;40.75;32.75;;;;;;;;5017725;28;45413;-76
2022/03/03 14:06:02;;;;;;;;;45.25;36.75;;;;;;;;5031672;28;45479;-76
2022/03/03 14:08:29;;;;;;;;;36.75;31.75;;;;;;;;5022592;28;46179;-75
2022/03/03 14:11:07;;;;;;;;;45.25;35.50;;;;;;;;5024380;28;45331;-75
2022/03/03 14:13:44;;;;;;;;;43.25;35.50;;;;;;;;5029441;28;45372;-74